Latest Weather Observations for Macquarie Island*

IDT60801

Issued at 7:31 pm EST Saturday 13 April 2024 (issued every 10 minutes, with the page automatically refreshed every 10 minutes)

About weather observations | Map of weather stations | Latest weather observations for ANT | Other Formats
Station Details ID: 300004 Name: MACQUARIE ISLAND Lat: -54.50 Lon: 158.94 Height: 6.0 m
Data from the previous 72 hours. | See also: Recent months at Macquarie Island*
Date/Time
EST
Temp
°C
App
Temp
°C
Dew
Point
°C
Rel
Hum
%
Delta-T
°C
Wind Press
QNH
hPa
Press
MSL
hPa
Rain since
9am
mm
Dir  Spd
km/h
Gust
km/h
Spd
kts
Gust
kts
13/07:00pm 5.7 -4.5 3.2 84 1.0 NW 46 54 25 29 1002.1 1002.1 0.8
13/06:30pm 5.7 -4.1 3.5 86 0.9 NW 44 50 24 27 1001.6 1001.6 0.8
13/06:00pm 5.4 -4.5 2.8 83 1.1 NW 44 54 24 29 1001.7 1001.7 0.8
13/05:30pm 5.6 -5.0 2.9 83 1.1 NW 48 59 26 32 1001.8 1001.8 0.8
13/05:00pm 5.6 -4.6 3.1 84 1.0 WNW 46 56 25 30 1001.4 1001.4 0.8
13/04:30pm 5.4 -4.5 2.8 83 1.1 WNW 44 54 24 29 1001.0 1001.0 0.8
13/04:00pm 5.4 -3.9 3.1 85 1.0 NW 41 48 22 26 1000.8 1000.8 0.8
13/03:30pm 5.0 -4.7 2.7 85 0.9 WNW 43 50 23 27 1000.6 1000.6 0.8
13/03:13pm 4.6 -6.9 2.5 86 0.8 WNW 52 70 28 38 1000.5 1000.5 0.8
13/03:00pm 4.6 -6.5 2.3 85 0.9 W 50 67 27 36 1000.6 1000.6 0.6
13/02:30pm 5.1 -5.3 2.3 82 1.1 WNW 46 74 25 40 1000.0 1000.0 0.4
13/02:20pm 5.6 -5.6 2.1 78 1.4 WNW 50 69 27 37 999.6 999.6 0.4
13/02:00pm 6.2 -4.9 2.5 77 1.5 WNW 50 63 27 34 999.2 999.2 0.4
13/01:36pm 6.5 -5.4 2.2 74 1.8 WNW 54 72 29 39 998.8 998.8 0.4
13/01:30pm 6.2 -5.4 1.9 74 1.7 WNW 52 63 28 34 998.9 998.9 0.4
13/01:00pm 6.6 -5.8 1.5 70 2.1 WNW 56 65 30 35 998.6 998.6 0.4
13/12:30pm 6.6 -5.4 1.7 71 2.0 WNW 54 67 29 36 998.5 998.5 0.4
13/12:00pm 6.2 -6.3 0.7 68 2.2 WNW 56 70 30 38 998.2 998.2 0.4
13/11:30am 6.1 -5.7 0.2 66 2.3 WNW 52 70 28 38 998.2 998.2 0.4
13/11:22am 5.8 -5.6 0.6 69 2.0 W 50 70 27 38 998.1 998.1 0.4
13/11:00am 5.6 -7.3 -1.8 59 2.7 W 56 69 30 37 997.8 997.8 0.4
13/10:37am 5.5 -6.0 -0.3 66 2.2 W 50 69 27 37 997.4 997.4 0.4
13/10:30am 5.5 -6.7 0.1 68 2.1 W 54 67 29 36 997.3 997.3 0.4
13/10:00am 4.6 -7.0 1.6 81 1.2 WNW 52 69 28 37 996.8 996.8 0.4
13/09:44am 4.4 -7.9 1.8 83 1.0 WNW 56 80 30 43 996.7 996.7 0.4
13/09:30am 4.6 -6.9 2.3 85 0.9 WNW 52 65 28 35 996.2 996.2 0.4
13/09:10am 4.5 -8.5 1.2 79 1.3 WNW 59 78 32 42 996.5 996.5 0.2
13/09:00am 5.7 -8.1 1.1 72 1.8 WNW 63 78 34 42 995.6 995.6 4.0
13/08:49am 5.8 -5.6 2.6 80 1.3 WNW 52 70 28 38 995.7 995.7 4.0
13/08:30am 5.3 -5.5 2.0 79 1.3 NW 48 61 26 33 995.4 995.4 4.0
13/08:00am 4.4 -6.5 1.4 81 1.2 WNW 48 59 26 32 995.6 995.6 4.0
13/07:30am 4.0 -6.4 1.9 86 0.8 WNW 46 56 25 30 995.7 995.7 4.0
13/07:00am 3.7 -7.1 2.2 90 0.6 WNW 48 59 26 32 995.7 995.7 4.0
13/06:43am 3.3 -7.9 1.7 89 0.6 WNW 50 70 27 38 995.3 995.3 4.0
13/06:36am 3.4 -5.6 2.2 92 0.5 WNW 39 63 21 34 995.5 995.5 4.0
13/06:30am 3.2 -5.9 1.9 91 0.5 W 39 46 21 25 995.4 995.4 3.8
13/06:28am 3.1 -6.0 1.8 91 0.5 W 39 57 21 31 995.4 995.4 3.8
13/06:00am 3.4 -6.1 1.8 89 0.6 WNW 41 48 22 26 995.1 995.1 3.8
13/05:30am 3.2 -5.9 2.0 92 0.5 WNW 39 48 21 26 995.2 995.2 3.8
13/05:19am 2.8 -7.3 1.5 91 0.5 WNW 44 63 24 34 995.2 995.2 3.8
13/05:00am 2.9 -8.4 1.4 90 0.6 WNW 50 70 27 38 995.1 995.1 3.6
13/04:57am 2.8 -9.7 1.0 88 0.7 WNW 56 74 30 40 995.1 995.1 3.6
13/04:49am 3.3 -7.7 0.9 84 0.9 WNW 48 74 26 40 994.9 994.9 3.6
13/04:47am 3.6 -6.3 1.5 86 0.8 WNW 43 69 23 37 995.0 995.0 3.6
13/04:30am 3.2 -6.3 1.7 90 0.6 WNW 41 50 22 27 994.7 994.7 3.4
13/04:12am 2.3 -9.6 0.0 85 0.8 WNW 52 72 28 39 995.0 995.0 2.8
13/04:10am 2.8 -9.4 0.4 84 0.9 WNW 54 72 29 39 995.3 995.3 2.8
13/04:00am 3.4 -7.4 1.8 89 0.6 NW 48 63 26 34 994.3 994.3 2.8
13/03:46am 4.1 -6.8 1.6 84 1.0 NW 48 78 26 42 994.4 994.4 2.6
13/03:30am 3.9 -7.8 0.9 81 1.2 WNW 52 61 28 33 994.6 994.6 2.6
13/03:00am 3.2 -6.3 1.7 90 0.6 WNW 41 48 22 26 994.6 994.6 2.6
13/02:30am 2.6 -9.2 0.5 86 0.8 W 52 69 28 37 995.1 995.1 2.4
13/02:23am 3.1 -8.3 0.5 83 1.0 WNW 50 63 27 34 995.0 995.0 2.4
13/02:00am 3.6 -7.3 1.2 84 0.9 WNW 48 59 26 32 994.8 994.8 2.4
13/01:30am 3.7 -7.9 1.4 85 0.9 WNW 52 69 28 37 994.7 994.7 2.4
13/01:00am 3.5 -7.0 1.4 86 0.8 WNW 46 57 25 31 994.8 994.8 2.4
13/12:30am 2.7 -6.1 1.4 91 0.5 WNW 37 52 20 28 994.9 994.9 2.2
13/12:13am 3.4 -6.9 0.6 82 1.1 NW 44 67 24 36 994.5 994.5 1.4
13/12:00am 3.5 -6.5 0.7 82 1.1 NW 43 50 23 27 994.6 994.6 1.4
 
Date/Time
EST
Temp
°C
App
Temp
°C
Dew
Point
°C
Rel
Hum
%
Delta-T
°C
Wind Press
QNH
hPa
Press
MSL
hPa
Rain since
9am
mm
Dir  Spd
km/h
Gust
km/h
Spd
kts
Gust
kts
12/11:30pm 3.1 -5.3 1.6 90 0.6 WNW 35 41 19 22 994.4 994.4 1.4
12/11:00pm 2.9 -7.6 1.4 90 0.6 WNW 46 57 25 31 994.6 994.6 1.4
12/10:37pm 3.6 -6.4 0.7 81 1.1 NW 43 61 23 33 994.3 994.3 1.2
12/10:30pm 3.9 -6.1 1.1 82 1.1 NW 43 50 23 27 994.3 994.3 1.2
12/10:00pm 3.9 -6.9 -0.5 73 1.6 WNW 46 63 25 34 994.2 994.2 1.2
12/09:30pm 3.9 -6.3 -0.5 73 1.6 WNW 43 61 23 33 994.3 994.3 1.2
12/09:27pm 4.3 -5.1 -0.3 72 1.7 WNW 39 57 21 31 993.8 993.8 1.2
12/09:00pm 3.9 -5.8 -1.9 66 2.1 WNW 39 54 21 29 993.9 993.9 1.2
12/08:30pm 3.7 -7.4 -2.9 62 2.3 WNW 46 57 25 31 993.7 993.7 1.2
12/08:24pm 3.8 -7.3 -2.6 63 2.2 WNW 46 65 25 35 993.6 993.6 1.2
12/08:00pm 4.2 -6.2 -0.6 71 1.8 WNW 44 56 24 30 993.1 993.1 1.2
12/07:30pm 3.8 -6.2 -1.5 68 1.9 WNW 41 56 22 30 993.0 993.0 1.2
12/07:00pm 3.9 -7.5 -1.9 66 2.1 W 48 61 26 33 992.8 992.8 1.2
12/06:30pm 3.8 -8.0 -2.0 66 2.1 WNW 50 63 27 34 992.2 992.2 1.2
12/06:00pm 3.7 -7.6 -1.4 69 1.9 W 48 61 26 33 991.7 991.7 1.2
12/05:30pm 3.7 -7.6 -1.6 68 1.9 W 48 63 26 34 991.2 991.2 1.2
12/05:00pm 3.8 -7.1 -1.0 71 1.8 W 46 56 25 30 990.5 990.5 1.2
12/04:30pm 4.3 -6.9 -0.7 70 1.9 WNW 48 61 26 33 989.9 989.9 1.2
12/04:00pm 4.5 -7.4 -0.1 72 1.8 WNW 52 65 28 35 989.3 989.3 1.2
12/03:30pm 4.4 -5.8 -0.2 72 1.7 WNW 43 52 23 28 988.9 988.9 1.2
12/03:00pm 4.3 -5.2 1.7 83 1.0 WNW 41 50 22 27 988.7 988.7 1.2
12/02:30pm 4.1 -6.6 2.3 88 0.7 W 48 59 26 32 988.1 988.1 1.0
12/02:21pm 4.4 -7.1 2.3 86 0.8 WNW 52 61 28 33 988.1 988.1 1.0
12/02:00pm 5.0 -4.6 3.3 89 0.7 NW 43 54 23 29 987.4 987.4 1.0
12/01:30pm 4.7 -4.1 3.5 92 0.5 WNW 39 44 21 24 987.2 987.2 1.0
12/01:04pm 4.5 -4.9 2.4 86 0.8 WNW 41 61 22 33 987.4 987.4 0.6
12/01:00pm 5.1 -4.2 3.1 87 0.8 WNW 41 48 22 26 987.0 987.0 0.4
12/12:30pm 4.8 -4.5 2.7 86 0.9 WNW 41 50 22 27 986.8 986.8 0.4
12/12:00pm 4.9 -5.3 3.4 90 0.6 WNW 46 57 25 31 986.6 986.6 0.4
12/11:30am 4.6 -5.6 3.1 90 0.6 W 46 57 25 31 986.5 986.5 0.4
12/11:02am 5.8 -7.3 3.0 82 1.2 NW 61 76 33 41 985.9 985.9 0.0
12/11:00am 7.5 -5.5 5.3 86 1.0 NW 63 76 34 41 985.0 985.0 0.0
12/10:33am 7.2 -4.6 5.7 90 0.7 NW 57 76 31 41 984.3 984.3 0.0
12/10:30am 7.2 -4.0 5.7 90 0.7 NW 54 70 29 38 984.3 984.3 0.0
12/10:04am 7.2 -3.7 5.5 89 0.8 NW 52 72 28 39 983.8 983.8 0.0
12/10:00am 7.2 -3.7 5.5 89 0.8 NW 52 67 28 36 983.8 983.8 0.0
12/09:30am 7.1 -5.5 5.4 89 0.8 NW 61 72 33 39 983.9 983.9 0.0
12/09:00am 7.2 -4.6 5.7 90 0.7 NW 57 76 31 41 983.6 983.6 6.8
12/08:40am 7.1 -3.3 6.0 93 0.5 NW 50 74 27 40 983.9 983.9 6.8
12/08:30am 7.0 -2.6 6.1 94 0.4 NW 46 63 25 34 984.0 984.0 6.8
12/08:01am 7.0 -4.5 6.1 94 0.4 NW 56 74 30 40 984.1 984.1 6.8
12/08:00am 7.0 -4.7 6.1 94 0.4 NW 57 74 31 40 984.1 984.1 6.8
12/07:30am 7.2 -5.2 6.5 95 0.3 NW 61 85 33 46 983.8 983.8 6.8
12/07:00am 7.0 -4.5 6.3 95 0.3 NW 56 76 30 41 984.0 984.0 6.6
12/06:33am 7.0 -5.8 6.4 96 0.3 NW 63 82 34 44 984.0 984.0 6.2
12/06:30am 7.1 -6.1 6.5 96 0.3 NW 65 82 35 44 984.0 984.0 6.2
12/06:20am 7.1 -5.7 6.5 96 0.3 NW 63 82 34 44 984.0 984.0 6.2
12/06:00am 7.0 -5.8 6.4 96 0.3 NW 63 78 34 42 984.2 984.2 6.0
12/05:32am 7.0 -6.6 6.4 96 0.3 NNW 67 85 36 46 984.2 984.2 5.8
12/05:30am 7.0 -6.6 6.4 96 0.3 NNW 67 80 36 43 984.2 984.2 5.8
12/05:00am 6.9 -6.3 6.3 96 0.3 NW 65 80 35 43 984.6 984.6 5.8
12/04:46am 7.0 -6.2 6.4 96 0.3 NW 65 83 35 45 984.8 984.8 5.6
12/04:30am 6.9 -6.7 6.3 96 0.3 NW 67 78 36 42 985.1 985.1 5.6
12/04:00am 6.9 -7.1 6.3 96 0.3 NNW 69 87 37 47 985.3 985.3 5.4
12/03:54am 7.0 -7.0 6.3 95 0.3 NNW 69 87 37 47 985.5 985.5 5.4
12/03:30am 7.0 -7.0 6.3 95 0.3 NNW 69 80 37 43 985.8 985.8 5.2
12/03:00am 6.9 -6.7 6.2 95 0.3 NNW 67 85 36 46 986.4 986.4 4.8
12/02:51am 6.9 -6.3 6.2 95 0.3 NNW 65 85 35 46 986.5 986.5 4.4
12/02:30am 6.7 -6.9 6.0 95 0.3 NNW 67 80 36 43 987.0 987.0 4.0
12/02:00am 6.8 -6.8 6.1 95 0.3 NNW 67 80 36 43 987.6 987.6 3.2
12/01:30am 6.7 -7.3 6.0 95 0.3 NNW 69 82 37 44 988.4 988.4 3.0
12/01:00am 6.7 -6.9 6.0 95 0.3 NNW 67 82 36 44 989.1 989.1 2.8
12/12:30am 6.6 -7.4 5.9 95 0.3 NNW 69 82 37 44 989.5 989.5 2.6
12/12:00am 6.5 -7.2 5.6 94 0.4 NNW 67 82 36 44 990.1 990.1 2.6
 
Date/Time
EST
Temp
°C
App
Temp
°C
Dew
Point
°C
Rel
Hum
%
Delta-T
°C
Wind Press
QNH
hPa
Press
MSL
hPa
Rain since
9am
mm
Dir  Spd
km/h
Gust
km/h
Spd
kts
Gust
kts
11/11:30pm 6.5 -7.7 5.3 92 0.5 NNW 69 91 37 49 990.7 990.7 2.6
11/11:08pm 6.5 -7.3 5.1 91 0.6 NNW 67 89 36 48 991.1 991.1 2.6
11/11:00pm 6.4 -7.8 5.0 91 0.6 NNW 69 80 37 43 991.4 991.4 2.6
11/10:30pm 6.4 -7.1 4.9 90 0.7 NNW 65 82 35 44 991.5 991.5 2.6
11/10:08pm 6.4 -6.8 4.7 89 0.7 NNW 63 82 34 44 992.0 992.0 2.6
11/10:00pm 6.3 -6.5 4.6 89 0.7 NNW 61 74 33 40 992.3 992.3 2.6
11/09:30pm 6.2 -6.2 4.4 88 0.8 NW 59 74 32 40 992.8 992.8 2.6
11/09:17pm 6.2 -5.7 4.2 87 0.9 NW 56 74 30 40 993.0 993.0 2.6
11/09:00pm 6.3 -5.6 4.1 86 0.9 NW 56 70 30 38 993.4 993.4 2.4
11/08:31pm 6.3 -4.1 4.0 85 1.0 NW 48 70 26 38 993.6 993.6 2.4
11/08:30pm 6.3 -4.1 4.0 85 1.0 NW 48 63 26 34 993.6 993.6 2.4
11/08:00pm 6.3 -5.9 3.5 82 1.2 NW 57 70 31 38 993.9 993.9 2.4
11/07:30pm 6.2 -6.0 3.7 84 1.1 NW 57 74 31 40 994.1 994.1 2.4
11/07:00pm 5.9 -5.0 3.7 86 0.9 NW 50 74 27 40 994.0 994.0 2.4
11/06:57pm 5.9 -4.6 3.9 87 0.8 NW 48 67 26 36 994.1 994.1 2.4
11/06:30pm 5.8 -5.9 3.6 86 0.9 NW 54 69 29 37 994.1 994.1 2.4
11/06:01pm 5.7 -5.6 3.7 87 0.8 NW 52 70 28 38 994.5 994.5 2.4
11/06:00pm 5.8 -5.4 3.8 87 0.9 NW 52 69 28 37 994.6 994.6 2.4
11/05:30pm 5.8 -5.1 3.3 84 1.0 NW 50 69 27 37 995.1 995.1 2.4
11/05:00pm 5.6 -5.8 3.1 84 1.0 NW 52 67 28 36 995.4 995.4 2.4
11/04:30pm 5.9 -4.8 2.4 78 1.4 NW 48 61 26 33 995.6 995.6 2.4
11/04:10pm 5.5 -4.4 2.7 82 1.1 NW 44 63 24 34 996.0 996.0 2.4
11/04:00pm 5.3 -4.4 2.7 83 1.1 NW 43 57 23 31 996.2 996.2 2.4
11/03:30pm 5.1 -5.3 1.9 80 1.3 NW 46 56 25 30 996.5 996.5 2.4
11/03:00pm 4.8 -5.3 1.7 80 1.2 WNW 44 52 24 28 996.9 996.9 2.4
11/02:38pm 4.5 -5.3 2.2 85 0.9 WNW 43 61 23 33 997.3 997.3 2.4
11/02:30pm 4.6 -5.1 3.1 90 0.6 WNW 43 50 23 27 997.4 997.4 2.4
11/02:09pm 3.8 -6.1 2.6 92 0.5 WNW 44 65 24 35 997.3 997.3 2.4
11/02:00pm 3.3 -9.2 2.1 92 0.5 W 57 80 31 43 997.5 997.5 2.4
11/01:48pm 4.6 -7.8 2.8 88 0.7 WNW 57 78 31 42 996.7 996.7 1.6
11/01:30pm 4.5 -7.6 3.0 90 0.6 NW 56 67 30 36 996.5 996.5 1.6
11/01:00pm 4.3 -7.9 2.7 89 0.7 WNW 56 70 30 38 996.9 996.9 1.4
11/12:30pm 4.9 -5.8 2.6 85 0.9 WNW 48 59 26 32 996.9 996.9 1.2
11/12:00pm 5.0 -6.0 2.9 86 0.9 NW 50 65 27 35 997.1 997.1 1.2
11/11:30am 4.6 -6.5 2.5 86 0.8 WNW 50 61 27 33 997.4 997.4 1.2
11/11:14am 4.3 -6.8 2.3 87 0.8 WNW 50 70 27 38 997.5 997.5 1.2
11/11:00am 4.6 -6.0 3.1 90 0.6 WNW 48 59 26 32 997.6 997.6 1.2
11/10:30am 3.8 -7.3 2.2 89 0.6 WNW 50 67 27 36 997.9 997.9 1.0
11/10:17am 5.2 -6.9 1.1 75 1.6 WNW 54 72 29 39 997.1 997.1 0.0
11/10:00am 5.8 -5.5 1.3 73 1.8 WNW 50 61 27 33 996.9 996.9 0.0
11/09:44am 5.8 -4.7 1.2 72 1.8 WNW 46 65 25 35 997.0 997.0 0.0
11/09:30am 5.8 -5.9 0.8 70 2.0 WNW 52 69 28 37 997.0 997.0 0.0
11/09:21am 5.6 -4.6 0.8 71 1.9 WNW 44 63 24 34 996.9 996.9 0.0
11/09:00am 5.8 -5.7 0.0 66 2.2 WNW 50 67 27 36 997.2 997.2 6.8
11/08:36am 5.3 -5.1 -0.3 67 2.1 W 44 65 24 35 997.2 997.2 6.8
11/08:30am 5.5 -5.9 0.3 69 2.0 WNW 50 69 27 37 997.0 997.0 6.8
11/08:27am 5.4 -6.8 0.0 68 2.1 WNW 54 69 29 37 996.9 996.9 6.8
11/08:04am 5.3 -7.0 -0.1 68 2.1 S 54 74 29 40 996.2 996.2 6.8
11/08:00am 5.2 -5.8 0.6 72 1.8 S 48 67 26 36 996.3 996.3 6.8
11/07:30am 4.5 -6.9 0.8 77 1.4 S 50 69 27 37 996.2 996.2 6.8
11/07:02am 4.4 -8.9 -0.4 71 1.8 S 59 78 32 42 996.1 996.1 6.8
11/07:00am 4.4 -8.9 -0.4 71 1.8 S 59 76 32 41 996.1 996.1 6.8
11/06:30am 3.9 -8.7 0.4 78 1.3 S 56 78 30 42 995.9 995.9 6.8
11/06:00am 4.2 -10.7 -1.0 69 1.9 S 67 87 36 47 995.1 995.1 6.8
11/05:33am 4.1 -10.4 -1.1 69 1.9 S 65 85 35 46 994.6 994.6 6.8
11/05:30am 4.1 -10.0 -0.9 70 1.8 S 63 80 34 43 994.5 994.5 6.8
11/05:02am 3.9 -9.3 0.1 76 1.4 S 59 78 32 42 993.9 993.9 6.8
11/05:00am 4.0 -9.5 0.3 77 1.4 S 61 78 33 42 993.8 993.8 6.8
11/04:30am 3.5 -11.6 0.0 78 1.3 S 69 96 37 52 993.5 993.5 6.8
11/04:12am 3.0 -13.0 0.1 81 1.1 SSW 74 102 40 55 993.2 993.2 6.8
11/04:00am 4.4 -9.6 -0.4 71 1.8 SSW 63 83 34 45 992.5 992.5 6.8
11/03:41am 3.9 -10.9 -0.5 73 1.6 SSW 67 85 36 46 992.0 992.0 6.8
11/03:30am 4.1 -10.9 0.8 79 1.3 SW 69 83 37 45 991.7 991.7 6.8
11/03:03am 3.1 -10.4 0.7 84 0.9 SSW 61 80 33 43 991.6 991.6 6.8
11/03:00am 3.1 -10.3 1.2 87 0.7 SSW 61 74 33 40 991.9 991.9 6.8
11/02:30am 3.9 -12.0 -1.7 67 2.0 SW 72 95 39 51 990.9 990.9 6.8
11/02:00am 4.0 -10.4 -0.2 74 1.6 SSW 65 83 35 45 991.2 991.2 6.8
11/01:30am 3.8 -10.7 -1.2 70 1.8 SSW 65 83 35 45 991.0 991.0 6.8
11/01:00am 3.7 -10.9 -1.8 67 2.0 SSW 65 83 35 45 990.4 990.4 6.8
11/12:30am 2.7 -10.7 -1.8 72 1.6 SSW 59 82 32 44 991.0 991.0 6.8
11/12:00am 3.2 -11.4 -2.3 67 2.0 S 65 87 35 47 990.5 990.5 6.8
 
Date/Time
EST
Temp
°C
App
Temp
°C
Dew
Point
°C
Rel
Hum
%
Delta-T
°C
Wind Press
QNH
hPa
Press
MSL
hPa
Rain since
9am
mm
Dir  Spd
km/h
Gust
km/h
Spd
kts
Gust
kts
10/11:36pm 2.9 -11.9 -3.2 64 2.1 S 65 83 35 45 990.0 990.0 6.8
10/11:30pm 2.9 -12.6 -3.4 63 2.1 S 69 85 37 46 990.0 990.0 6.8
10/11:21pm 2.9 -11.9 -3.2 64 2.1 S 65 83 35 45 989.9 989.9 6.8
10/11:00pm 2.8 -11.2 -3.5 63 2.2 S 61 76 33 41 989.3 989.3 6.8
10/10:32pm 2.5 -12.2 -2.8 68 1.8 S 65 83 35 45 989.1 989.1 6.8
10/10:30pm 2.3 -12.8 -3.0 68 1.8 S 67 83 36 45 988.8 988.8 6.8
10/10:04pm 2.1 -10.3 -1.2 79 1.2 SSE 54 74 29 40 988.4 988.4 6.8
10/10:00pm 2.2 -9.3 -0.1 85 0.9 S 50 65 27 35 988.2 988.2 6.8
10/09:55pm 1.6 -10.3 -0.5 86 0.8 S 52 72 28 39 988.3 988.3 6.8
10/09:49pm 1.8 -10.6 -1.3 80 1.1 S 54 72 29 39 988.3 988.3 6.8
10/09:47pm 2.1 -10.4 -2.0 74 1.4 SSE 54 72 29 39 988.2 988.2 6.8
10/09:30pm 2.5 -9.4 -0.3 82 1.0 SSE 52 61 28 33 987.9 987.9 6.8
10/09:12pm 2.4 -9.0 0.3 86 0.8 S 50 70 27 38 987.0 987.0 6.8
10/09:05pm 2.4 -9.3 0.8 89 0.6 S 52 70 28 38 987.0 987.0 6.6
10/09:00pm 2.3 -9.2 -0.3 83 1.0 S 50 70 27 38 987.0 987.0 6.6
10/08:58pm 2.4 -8.9 -1.2 77 1.3 SSE 48 70 26 38 987.1 987.1 6.6
10/08:57pm 2.5 -8.5 -1.8 73 1.5 SSE 46 70 25 38 987.0 987.0 6.6
10/08:30pm 2.2 -9.1 -1.4 77 1.3 SSE 48 57 26 31 986.7 986.7 6.6
10/08:08pm 1.8 -9.8 -0.9 82 1.0 SSE 50 72 27 39 986.1 986.1 6.6
10/08:00pm 1.9 -6.9 -1.0 81 1.1 SE 35 65 19 35 985.9 985.9 6.6
10/07:37pm 1.8 -5.9 -0.1 87 0.7 E 30 61 16 33 985.1 985.1 6.4
10/07:36pm 2.0 -5.3 -0.1 86 0.8 E 28 54 15 29 985.1 985.1 6.4

Other formats

Comma delimited format used in spreadsheet applications
http://www.bom.gov.au/fwo/IDT60803/IDT60803.94998.axf

JavaScript Object Notation format (JSON) in row-major order
http://www.bom.gov.au/fwo/IDT60803/IDT60803.94998.json

Data quality

Most of these data are generated automatically and are frequently updated. Quality checks on data are not normally performed. It is possible for incorrect values to appear. Refer to information at About Latest Weather Observations and please check the disclaimer before using these data.